Time;durP1;ratioP1;P1;durP2;ratioP2;P2;SDS_P1;SDS_P2;PMS_P1;PMS_P2;Temp;Humidity;BMP_temperature;BMP_pressure;BME280_temperature;BME280_humidity;BME280_pressure;Samples;Min_cycle;Max_cycle;Signal;HPM_P1;HPM_P2
2021/09/03 04:01:28;;;;;;;11.57;10.27;;;14.00;99.90;;;;;;5500509;23;20485;-65
2021/09/03 04:03:55;;;;;;;12.60;11.40;;;14.00;99.90;;;;;;4996161;28;20457;-64
2021/09/03 04:06:22;;;;;;;11.70;10.50;;;13.90;99.90;;;;;;4995501;28;20449;-63
2021/09/03 04:08:48;;;;;;;12.33;11.07;;;13.90;99.90;;;;;;4995804;28;20464;-64
2021/09/03 04:11:15;;;;;;;12.00;10.87;;;13.90;99.90;;;;;;4995731;28;20469;-64
2021/09/03 04:13:42;;;;;;;12.70;11.40;;;14.00;99.90;;;;;;4995335;28;20999;-63
2021/09/03 04:16:08;;;;;;;12.67;10.57;;;14.00;99.90;;;;;;4995258;28;20969;-65
2021/09/03 04:18:38;;;;;;;13.43;11.23;;;14.00;99.90;;;;;;4995838;28;20465;-64
2021/09/03 04:21:05;;;;;;;11.33;10.30;;;13.90;99.90;;;;;;4995102;28;20488;-64
2021/09/03 04:23:32;;;;;;;12.17;10.97;;;13.90;99.90;;;;;;4995376;28;20453;-64
2021/09/03 04:25:59;;;;;;;10.93;9.83;;;13.90;99.90;;;;;;4995289;28;20537;-64
2021/09/03 04:28:25;;;;;;;10.67;9.63;;;13.80;99.90;;;;;;4996127;28;20453;-64
2021/09/03 04:30:52;;;;;;;11.23;10.23;;;13.80;99.90;;;;;;4995363;28;20478;-64
2021/09/03 04:33:19;;;;;;;13.67;12.20;;;13.70;99.90;;;;;;4995003;28;20478;-64
2021/09/03 04:35:47;;;;;;;13.10;11.80;;;13.60;99.90;;;;;;4998218;28;20486;-65
2021/09/03 04:38:13;;;;;;;13.50;11.43;;;13.60;99.90;;;;;;4999233;28;20936;-64
2021/09/03 04:40:40;;;;;;;11.57;10.47;;;13.50;99.90;;;;;;4994727;28;20842;-63
2021/09/03 04:43:07;;;;;;;11.30;10.20;;;13.50;99.90;;;;;;4995151;28;20476;-65
2021/09/03 04:45:33;;;;;;;13.40;12.00;;;13.50;99.90;;;;;;4995331;28;20453;-64
2021/09/03 04:48:00;;;;;;;11.10;10.03;;;13.50;99.90;;;;;;4998441;28;20453;-64
2021/09/03 04:50:27;;;;;;;13.60;11.00;;;13.50;99.90;;;;;;4998719;28;20937;-64
2021/09/03 04:52:55;;;;;;;12.00;11.00;;;13.50;99.90;;;;;;4998654;28;20468;-64
2021/09/03 04:55:22;;;;;;;11.50;10.30;;;13.50;99.90;;;;;;4998324;28;20831;-64
2021/09/03 04:57:48;;;;;;;12.53;11.33;;;13.60;99.90;;;;;;4998993;28;20460;-64
2021/09/03 05:00:18;;;;;;;12.63;11.23;;;13.60;99.90;;;;;;4997930;28;20941;-63
2021/09/03 05:02:45;;;;;;;12.80;11.50;;;13.60;99.90;;;;;;4998902;28;20438;-65
2021/09/03 05:05:12;;;;;;;13.53;12.33;;;13.60;99.90;;;;;;4998490;28;20964;-64
2021/09/03 05:07:39;;;;;;;12.07;10.97;;;13.60;99.90;;;;;;4998553;28;20461;-64
2021/09/03 05:10:09;;;;;;;12.40;11.20;;;13.70;99.90;;;;;;4998363;28;20450;-64
2021/09/03 05:12:36;;;;;;;13.77;12.33;;;13.70;99.90;;;;;;4998680;28;20466;-64
2021/09/03 05:15:07;;;;;;;12.80;11.60;;;13.70;99.90;;;;;;4998499;28;20485;-65
2021/09/03 05:17:33;;;;;;;13.20;11.90;;;13.80;99.90;;;;;;4998952;28;20928;-63
2021/09/03 05:20:00;;;;;;;12.17;11.00;;;13.80;99.90;;;;;;4998969;28;20868;-63
2021/09/03 05:22:27;;;;;;;12.83;11.40;;;13.80;99.90;;;;;;4997636;28;20481;-65
2021/09/03 05:24:53;;;;;;;12.50;11.30;;;13.80;99.90;;;;;;4998045;28;20932;-64
2021/09/03 05:27:21;;;;;;;13.90;12.47;;;13.90;99.90;;;;;;4997604;28;20799;-64
2021/09/03 05:29:48;;;;;;;11.90;11.00;;;14.00;99.90;;;;;;4997780;28;20453;-64
2021/09/03 05:32:15;;;;;;;15.00;13.33;;;14.00;99.90;;;;;;4997557;28;20477;-64
2021/09/03 05:34:41;;;;;;;13.60;12.40;;;13.90;99.90;;;;;;4998102;28;20486;-65
2021/09/03 05:37:08;;;;;;;14.23;12.73;;;14.00;99.90;;;;;;4997720;28;20465;-65
2021/09/03 05:39:35;;;;;;;13.27;11.87;;;14.00;99.90;;;;;;4997694;28;20508;-64
2021/09/03 05:42:02;;;;;;;16.80;12.77;;;14.00;99.90;;;;;;4997487;28;20477;-65
2021/09/03 05:44:30;;;;;;;15.13;13.00;;;14.00;99.90;;;;;;4997640;28;20815;-64
2021/09/03 05:46:57;;;;;;;15.27;13.77;;;14.10;99.90;;;;;;4997615;28;20453;-64
2021/09/03 05:49:23;;;;;;;14.03;12.63;;;14.10;99.90;;;;;;4997167;28;20453;-64
2021/09/03 05:51:50;;;;;;;13.20;12.00;;;14.10;99.90;;;;;;4998949;28;21008;-64
2021/09/03 05:54:17;;;;;;;13.47;12.07;;;14.10;99.90;;;;;;5006303;28;20477;-64
2021/09/03 05:56:43;;;;;;;12.30;11.10;;;14.30;99.90;;;;;;5005516;28;20464;-64
2021/09/03 05:59:10;;;;;;;13.23;10.77;;;14.80;99.90;;;;;;5000168;28;20454;-64
2021/09/03 06:01:38;;;;;;;11.83;10.73;;;15.30;99.90;;;;;;4997018;28;20482;-64
2021/09/03 06:04:05;;;;;;;11.30;10.30;;;15.70;99.90;;;;;;4997300;28;20453;-64
2021/09/03 06:06:32;;;;;;;11.27;10.27;;;16.30;99.90;;;;;;4997025;28;20462;-64
2021/09/03 06:08:58;;;;;;;12.03;11.03;;;16.60;99.90;;;;;;4997033;28;20457;-64
2021/09/03 06:11:25;;;;;;;12.00;11.00;;;17.20;99.90;;;;;;4996503;28;20976;-64
2021/09/03 06:13:52;;;;;;;11.13;9.47;;;17.60;99.90;;;;;;4997025;28;20572;-65
2021/09/03 06:16:19;;;;;;;10.23;9.40;;;18.10;99.90;;;;;;4997904;28;20486;-65
2021/09/03 06:18:47;;;;;;;10.97;10.00;;;18.60;99.90;;;;;;4996688;28;20454;-65
2021/09/03 06:21:14;;;;;;;10.57;9.57;;;18.80;99.90;;;;;;4996567;28;20477;-65
2021/09/03 06:23:41;;;;;;;9.20;8.40;;;19.30;99.90;;;;;;4996884;28;20457;-64
2021/09/03 06:26:08;;;;;;;9.83;9.03;;;19.80;99.90;;;;;;4996571;28;20464;-65
2021/09/03 06:28:34;;;;;;;9.50;8.70;;;20.30;99.90;;;;;;4996865;28;20457;-65
2021/09/03 06:31:01;;;;;;;9.87;8.87;;;20.90;99.90;;;;;;4996562;28;20473;-65
2021/09/03 06:33:28;;;;;;;9.43;8.53;;;21.40;99.90;;;;;;4996472;28;20454;-65
2021/09/03 06:35:56;;;;;;;9.67;8.77;;;21.80;99.90;;;;;;4996889;28;20478;-65
2021/09/03 06:38:23;;;;;;;9.90;9.00;;;22.10;99.90;;;;;;4996782;28;20461;-65
2021/09/03 06:40:49;;;;;;;10.40;9.60;;;22.40;99.90;;;;;;4996475;28;20473;-65
2021/09/03 06:43:16;;;;;;;9.77;8.77;;;22.70;99.90;;;;;;4997180;28;20470;-64
2021/09/03 06:45:43;;;;;;;10.53;9.27;;;22.80;99.90;;;;;;5014133;28;20453;-65
2021/09/03 06:48:09;;;;;;;9.70;8.83;;;23.20;99.90;;;;;;5020158;28;20442;-65
2021/09/03 06:50:36;;;;;;;9.97;9.00;;;23.50;99.90;;;;;;5017850;28;20472;-65
2021/09/03 06:53:04;;;;;;;10.10;9.20;;;23.70;99.90;;;;;;4996332;28;20461;-65
2021/09/03 06:55:31;;;;;;;10.03;9.13;;;24.10;99.90;;;;;;4996059;28;21007;-65
2021/09/03 06:57:58;;;;;;;9.77;8.77;;;24.20;99.90;;;;;;4996917;28;20460;-65
2021/09/03 07:00:24;;;;;;;9.77;8.17;;;24.70;99.90;;;;;;4996007;28;20461;-64
2021/09/03 07:02:51;;;;;;;10.63;9.60;;;25.00;99.90;;;;;;4999121;28;20777;-65
2021/09/03 07:05:18;;;;;;;13.03;9.47;;;25.30;99.90;;;;;;5000739;28;20454;-65
2021/09/03 07:07:45;;;;;;;10.17;9.23;;;25.50;99.90;;;;;;5008474;28;20461;-66
2021/09/03 07:10:14;;;;;;;10.63;9.63;;;25.70;99.90;;;;;;5008798;28;20458;-65
2021/09/03 07:12:41;;;;;;;10.63;9.40;;;25.70;99.90;;;;;;4996946;28;20475;-65
2021/09/03 07:15:09;;;;;;;10.53;9.07;;;25.70;99.70;;;;;;4996280;28;20505;-65
2021/09/03 07:17:36;;;;;;;10.07;9.07;;;26.10;99.10;;;;;;4996787;28;20532;-64
2021/09/03 07:20:02;;;;;;;9.70;8.80;;;26.60;97.90;;;;;;4996612;28;20457;-64
2021/09/03 07:22:29;;;;;;;11.03;10.13;;;26.60;96.60;;;;;;4996403;28;20477;-64
2021/09/03 07:24:56;;;;;;;10.10;9.30;;;27.20;96.20;;;;;;4996593;28;20452;-65
2021/09/03 07:27:24;;;;;;;10.50;9.50;;;27.10;94.70;;;;;;4996335;28;20457;-65
2021/09/03 07:29:51;;;;;;;9.13;8.43;;;26.80;95.40;;;;;;4996216;28;20530;-65
2021/09/03 07:32:17;;;;;;;9.20;8.40;;;27.00;95.70;;;;;;4995792;28;20504;-65
2021/09/03 07:34:44;;;;;;;8.67;8.00;;;26.90;95.80;;;;;;4995588;28;20478;-65
2021/09/03 07:37:11;;;;;;;10.33;9.40;;;27.00;94.50;;;;;;4996277;28;20481;-64
2021/09/03 07:39:37;;;;;;;8.70;7.97;;;27.00;94.90;;;;;;4995695;28;20457;-64
2021/09/03 07:42:04;;;;;;;10.70;8.73;;;27.80;94.30;;;;;;4996118;28;20482;-64
2021/09/03 07:44:33;;;;;;;9.43;8.07;;;28.00;93.20;;;;;;4997257;28;20450;-65
2021/09/03 07:46:59;;;;;;;8.33;7.63;;;28.20;90.60;;;;;;4996350;28;20458;-64
2021/09/03 07:49:26;;;;;;;11.07;8.30;;;28.70;90.40;;;;;;4995381;28;20821;-64
2021/09/03 07:51:53;;;;;;;9.73;8.93;;;29.10;90.00;;;;;;4995412;28;20502;-64
2021/09/03 07:54:19;;;;;;;9.33;8.30;;;29.20;87.40;;;;;;4995142;28;20948;-64
2021/09/03 07:56:46;;;;;;;11.00;9.20;;;29.20;87.00;;;;;;4995289;28;20822;-65
2021/09/03 07:59:13;;;;;;;8.70;8.00;;;29.30;86.10;;;;;;4995227;28;20483;-65
2021/09/03 08:01:41;;;;;;;8.80;8.10;;;29.60;84.50;;;;;;4994854;28;20485;-65
2021/09/03 08:04:07;;;;;;;8.53;7.70;;;29.60;85.10;;;;;;4995259;28;20465;-65
2021/09/03 08:06:34;;;;;;;8.83;8.23;;;29.90;84.10;;;;;;4995400;28;20461;-65
2021/09/03 08:09:02;;;;;;;9.20;8.53;;;29.30;83.50;;;;;;4994954;28;20936;-65
2021/09/03 08:11:29;;;;;;;8.53;7.73;;;29.10;85.50;;;;;;4994836;28;20476;-65
2021/09/03 08:13:56;;;;;;;9.43;8.63;;;29.90;82.00;;;;;;4994994;28;20937;-65
2021/09/03 08:16:23;;;;;;;8.20;7.60;;;30.30;82.30;;;;;;4994976;28;20679;-66
2021/09/03 08:18:51;;;;;;;8.20;7.40;;;30.20;81.80;;;;;;4995167;28;20457;-65
2021/09/03 08:21:18;;;;;;;8.47;7.77;;;30.20;81.10;;;;;;4994683;28;20481;-66
2021/09/03 08:23:45;;;;;;;8.90;8.20;;;30.30;80.00;;;;;;4995070;28;20480;-65
2021/09/03 08:26:12;;;;;;;8.77;7.87;;;30.20;78.60;;;;;;4995107;28;20450;-65
2021/09/03 08:28:39;;;;;;;10.00;9.00;;;30.30;77.10;;;;;;4995419;28;20941;-65
2021/09/03 08:31:06;;;;;;;8.80;7.93;;;30.00;78.50;;;;;;4994632;28;20981;-65
2021/09/03 08:33:33;;;;;;;8.60;7.83;;;30.50;76.60;;;;;;4994973;28;20465;-65
2021/09/03 08:36:01;;;;;;;9.53;8.37;;;30.90;76.40;;;;;;4995266;28;20481;-65
2021/09/03 08:38:28;;;;;;;8.93;8.23;;;31.10;73.90;;;;;;4995772;28;20462;-65
2021/09/03 08:40:57;;;;;;;10.17;8.63;;;31.10;74.90;;;;;;4994630;28;20480;-65
2021/09/03 08:43:24;;;;;;;8.67;7.97;;;30.80;74.60;;;;;;4994817;28;20458;-65
2021/09/03 08:45:51;;;;;;;8.73;8.13;;;31.10;73.40;;;;;;4994892;28;20450;-65
2021/09/03 08:48:19;;;;;;;9.30;8.50;;;31.30;71.60;;;;;;4994830;28;20453;-64
2021/09/03 08:50:46;;;;;;;8.40;7.67;;;31.50;75.50;;;;;;4994836;28;20910;-64
2021/09/03 08:53:18;;;;;;;9.00;8.37;;;31.60;72.70;;;;;;4995190;28;20453;-65
2021/09/03 08:55:45;;;;;;;8.63;8.03;;;32.40;70.20;;;;;;4994889;28;20501;-65
2021/09/03 08:58:12;;;;;;;8.70;8.10;;;32.50;68.20;;;;;;4994850;28;20465;-65
2021/09/03 09:00:39;;;;;;;8.20;7.60;;;32.70;66.90;;;;;;4994315;28;20488;-66
2021/09/03 09:03:10;;;;;;;8.67;7.97;;;32.80;67.40;;;;;;4994804;28;20449;-65
2021/09/03 09:06:01;;;;;;;8.33;7.67;;;32.50;68.40;;;;;;4995209;28;20437;-66
2021/09/03 09:08:30;;;;;;;7.70;7.10;;;32.60;69.30;;;;;;4984966;28;20466;-65
2021/09/03 09:10:59;;;;;;;7.73;7.03;;;32.90;69.00;;;;;;4996367;28;20973;-67
2021/09/03 09:13:28;;;;;;;8.50;7.90;;;33.50;68.60;;;;;;4995467;28;20462;-66
2021/09/03 09:16:08;;;;;;;7.57;7.07;;;32.80;69.40;;;;;;4995055;28;20527;-66
2021/09/03 09:18:38;;;;;;;7.57;6.97;;;33.10;68.10;;;;;;4994695;28;20909;-65
2021/09/03 09:21:14;;;;;;;8.53;7.93;;;33.00;69.50;;;;;;4995371;28;20488;-65
2021/09/03 09:23:44;;;;;;;9.40;8.37;;;33.50;64.80;;;;;;4995567;28;20464;-66
2021/09/03 09:26:12;;;;;;;8.23;7.63;;;33.50;62.90;;;;;;4995507;28;20437;-66
2021/09/03 09:28:39;;;;;;;8.13;7.43;;;33.60;62.00;;;;;;4995005;28;20457;-66
2021/09/03 09:31:06;;;;;;;8.87;8.00;;;33.80;63.30;;;;;;4994729;28;20481;-65
2021/09/03 09:33:33;;;;;;;9.33;7.90;;;33.80;61.10;;;;;;4995724;28;20487;-65
2021/09/03 09:36:01;;;;;;;7.90;7.20;;;34.10;60.90;;;;;;4997562;28;20882;-65
2021/09/03 09:38:30;;;;;;;7.67;7.07;;;33.30;63.90;;;;;;4997570;28;20465;-66
2021/09/03 09:41:00;;;;;;;7.03;6.43;;;34.10;60.80;;;;;;4997508;28;20474;-66
2021/09/03 09:43:34;;;;;;;7.77;7.17;;;33.90;60.00;;;;;;4997571;28;20528;-65
2021/09/03 09:46:22;;;;;;;7.23;6.63;;;34.70;57.90;;;;;;4998392;28;20441;-66
2021/09/03 09:49:07;;;;;;;8.90;8.23;;;34.60;58.00;;;;;;4997504;28;20450;-66
2021/09/03 09:51:37;;;;;;;7.83;7.33;;;34.60;58.20;;;;;;4997201;28;20593;-65
2021/09/03 09:54:07;;;;;;;8.30;7.70;;;34.60;59.40;;;;;;4998462;28;20469;-66
2021/09/03 09:56:37;;;;;;;7.37;6.80;;;35.30;59.10;;;;;;5003166;28;20481;-66
2021/09/03 09:59:06;;;;;;;6.97;6.43;;;35.10;57.50;;;;;;5014028;28;20449;-66
2021/09/03 10:01:34;;;;;;;7.10;6.60;;;35.10;57.70;;;;;;5007913;28;20477;-65
2021/09/03 10:04:06;;;;;;;6.80;6.37;;;35.50;55.90;;;;;;5002093;28;20524;-65
2021/09/03 10:06:34;;;;;;;6.70;6.30;;;35.40;56.80;;;;;;4997963;28;20905;-65
2021/09/03 10:09:02;;;;;;;7.90;7.20;;;34.50;57.00;;;;;;4997019;28;20456;-65
2021/09/03 10:11:28;;;;;;;8.07;6.50;;;34.70;56.60;;;;;;4999494;28;20474;-66
2021/09/03 10:13:57;;;;;;;7.03;6.60;;;34.90;56.70;;;;;;5000675;28;20460;-65
2021/09/03 10:16:24;;;;;;;6.63;6.23;;;35.40;57.20;;;;;;4996631;28;20477;-66
2021/09/03 10:18:55;;;;;;;7.00;6.60;;;35.30;54.90;;;;;;4996637;28;20969;-66
2021/09/03 10:21:23;;;;;;;6.50;6.10;;;36.10;55.00;;;;;;4997083;28;20476;-65
2021/09/03 10:23:53;;;;;;;6.23;5.77;;;36.30;55.10;;;;;;4996984;28;20462;-65
2021/09/03 10:26:23;;;;;;;6.40;6.00;;;35.60;55.10;;;;;;4996568;28;20454;-64
2021/09/03 10:29:10;;;;;;;7.40;6.90;;;35.80;57.50;;;;;;4996915;28;20444;-65
2021/09/03 10:31:37;;;;;;;7.03;6.13;;;35.90;55.50;;;;;;4996587;28;20479;-66
2021/09/03 10:34:04;;;;;;;6.37;5.97;;;35.70;55.80;;;;;;4996391;28;20467;-66
2021/09/03 10:36:55;;;;;;;6.40;5.90;;;35.50;54.20;;;;;;4996306;28;20481;-65
2021/09/03 10:39:23;;;;;;;7.03;6.40;;;35.20;55.30;;;;;;4991514;28;20454;-66
2021/09/03 10:41:51;;;;;;;7.17;6.57;;;35.20;55.40;;;;;;4996346;28;20501;-66
2021/09/03 10:44:19;;;;;;;7.87;7.27;;;35.40;55.30;;;;;;4996056;28;20456;-65
2021/09/03 10:46:47;;;;;;;6.90;5.77;;;35.10;54.10;;;;;;4996077;28;20445;-66
2021/09/03 10:49:16;;;;;;;7.07;6.57;;;34.80;56.10;;;;;;4996129;28;20456;-65
2021/09/03 10:51:50;;;;;;;6.50;6.03;;;34.40;55.40;;;;;;4996590;28;20476;-66
2021/09/03 10:54:17;;;;;;;7.47;6.77;;;34.70;58.40;;;;;;4996349;28;20465;-66
2021/09/03 10:56:57;;;;;;;6.63;6.03;;;34.90;53.90;;;;;;4995942;28;20514;-65
2021/09/03 10:59:25;;;;;;;7.40;6.63;;;34.60;55.80;;;;;;4995742;28;20460;-65
2021/09/03 11:01:56;;;;;;;6.60;6.10;;;34.60;54.30;;;;;;4995407;28;20491;-66
2021/09/03 11:04:24;;;;;;;7.00;6.50;;;34.40;55.90;;;;;;4995946;28;20536;-65
2021/09/03 11:07:07;;;;;;;6.60;6.20;;;34.20;56.20;;;;;;4995456;28;21003;-65
2021/09/03 11:09:34;;;;;;;6.80;6.30;;;33.90;56.40;;;;;;4996653;28;20454;-66
2021/09/03 11:12:05;;;;;;;6.67;6.17;;;33.80;55.70;;;;;;4995341;28;20984;-66
2021/09/03 11:14:33;;;;;;;7.17;6.50;;;33.40;55.40;;;;;;4995671;28;20449;-66
2021/09/03 11:17:01;;;;;;;5.90;5.47;;;33.40;56.10;;;;;;4995614;28;20481;-66
2021/09/03 11:19:31;;;;;;;6.93;6.33;;;33.10;58.50;;;;;;4995481;28;20445;-66
2021/09/03 11:21:59;;;;;;;7.10;6.60;;;32.50;59.00;;;;;;4995613;28;20540;-66
2021/09/03 11:24:28;;;;;;;6.73;6.07;;;32.60;63.00;;;;;;4995441;28;20453;-65
2021/09/03 11:26:57;;;;;;;6.20;5.80;;;32.50;63.30;;;;;;4995323;28;20456;-66
2021/09/03 11:29:27;;;;;;;6.20;5.80;;;32.00;61.30;;;;;;4995432;28;20458;-65
2021/09/03 11:32:10;;;;;;;7.67;7.07;;;31.70;59.40;;;;;;4995562;28;20549;-66
2021/09/03 11:34:56;;;;;;;6.70;6.20;;;31.30;58.30;;;;;;4995297;28;20495;-66
2021/09/03 11:37:26;;;;;;;6.73;6.10;;;30.70;59.70;;;;;;4995042;28;20807;-67
2021/09/03 11:39:55;;;;;;;6.90;6.40;;;29.90;60.40;;;;;;4995287;28;20442;-65
2021/09/03 11:42:24;;;;;;;6.77;6.27;;;29.80;65.60;;;;;;4994901;28;20980;-66
2021/09/03 11:44:56;;;;;;;6.53;6.03;;;29.60;65.80;;;;;;4995527;28;20458;-66
2021/09/03 11:47:31;;;;;;;6.70;6.20;;;29.60;63.90;;;;;;5004316;28;20438;-66
2021/09/03 11:49:59;;;;;;;6.70;6.20;;;29.60;66.80;;;;;;5007649;28;20430;-66
2021/09/03 11:52:29;;;;;;;6.83;6.23;;;29.40;65.10;;;;;;5005634;28;20470;-66
2021/09/03 11:54:56;;;;;;;7.23;6.30;;;29.60;67.70;;;;;;4996226;28;20489;-66
2021/09/03 11:57:24;;;;;;;7.13;6.70;;;29.40;64.90;;;;;;4994602;28;20839;-66
2021/09/03 11:59:59;;;;;;;6.40;5.80;;;29.40;69.50;;;;;;4995124;28;20509;-66
2021/09/03 12:02:29;;;;;;;6.83;6.33;;;29.60;66.30;;;;;;4994638;28;20493;-66
2021/09/03 12:04:57;;;;;;;6.30;5.90;;;29.70;64.80;;;;;;4994921;28;20453;-66
2021/09/03 12:07:25;;;;;;;7.50;7.00;;;29.70;65.80;;;;;;4994903;28;20457;-65
2021/09/03 12:09:57;;;;;;;6.77;6.27;;;29.20;68.20;;;;;;4994876;28;20454;-66
2021/09/03 12:12:29;;;;;;;7.53;7.03;;;29.30;68.10;;;;;;4995703;28;20794;-65
2021/09/03 12:14:57;;;;;;;6.47;5.97;;;29.20;67.30;;;;;;4994995;28;20442;-66
2021/09/03 12:17:41;;;;;;;7.07;6.57;;;29.00;70.10;;;;;;4994886;28;20501;-66
2021/09/03 12:20:16;;;;;;;6.30;5.80;;;28.90;65.90;;;;;;4994899;28;20477;-66
2021/09/03 12:22:55;;;;;;;6.20;5.77;;;28.80;67.10;;;;;;4995126;28;20442;-66
2021/09/03 12:25:31;;;;;;;7.00;6.43;;;28.70;69.80;;;;;;4995066;28;20822;-66
2021/09/03 12:28:08;;;;;;;6.30;5.90;;;29.00;71.70;;;;;;4995185;28;21008;-67
2021/09/03 12:30:36;;;;;;;6.53;5.93;;;28.90;73.10;;;;;;4994601;28;20980;-66
2021/09/03 12:33:22;;;;;;;5.80;5.30;;;29.10;68.60;;;;;;5014929;28;20450;-65
2021/09/03 12:35:49;;;;;;;5.53;5.23;;;29.30;70.60;;;;;;5018698;28;20434;-66
2021/09/03 12:38:17;;;;;;;5.70;5.30;;;29.10;71.20;;;;;;5018122;28;20437;-66
2021/09/03 12:40:44;;;;;;;6.63;6.07;;;29.20;64.70;;;;;;5005471;28;20488;-66
2021/09/03 12:43:15;;;;;;;6.53;5.93;;;29.30;68.90;;;;;;4994574;28;20937;-66
2021/09/03 12:45:43;;;;;;;6.43;5.93;;;29.30;67.90;;;;;;4994625;28;20464;-65
2021/09/03 12:48:09;;;;;;;6.53;5.93;;;29.60;69.50;;;;;;4994773;28;20808;-66
2021/09/03 12:50:38;;;;;;;6.37;5.87;;;29.60;70.60;;;;;;4996263;28;20493;-67
2021/09/03 12:53:04;;;;;;;6.20;5.80;;;29.70;64.40;;;;;;5000472;28;20453;-66
2021/09/03 12:55:31;;;;;;;6.10;5.70;;;29.90;63.90;;;;;;4998239;28;20456;-66
2021/09/03 12:57:58;;;;;;;6.43;6.03;;;29.70;66.20;;;;;;4996000;28;20477;-66
2021/09/03 13:00:24;;;;;;;7.07;6.43;;;29.80;69.80;;;;;;4995028;28;20461;-65
2021/09/03 13:02:51;;;;;;;6.40;5.90;;;29.90;66.20;;;;;;4994313;28;20453;-65
2021/09/03 13:05:18;;;;;;;5.80;5.40;;;30.10;63.80;;;;;;4994599;28;20457;-65
2021/09/03 13:07:46;;;;;;;5.83;5.43;;;30.30;61.90;;;;;;4995895;28;20460;-66
2021/09/03 13:10:13;;;;;;;5.53;5.13;;;30.20;63.60;;;;;;4998295;28;20460;-65
2021/09/03 13:12:39;;;;;;;5.53;5.13;;;30.30;60.90;;;;;;4998581;28;20481;-66
2021/09/03 13:15:07;;;;;;;5.90;5.50;;;30.30;60.00;;;;;;4998351;28;20457;-66
2021/09/03 13:17:34;;;;;;;5.73;5.33;;;30.30;61.20;;;;;;5003168;28;20484;-65
2021/09/03 13:20:01;;;;;;;5.93;5.43;;;29.90;58.80;;;;;;5009059;28;20454;-66
2021/09/03 13:22:27;;;;;;;5.93;5.43;;;29.90;61.60;;;;;;5002149;28;20477;-66
2021/09/03 13:24:55;;;;;;;6.13;5.67;;;29.80;61.90;;;;;;5002393;28;20963;-66
2021/09/03 13:27:22;;;;;;;6.83;5.10;;;29.70;61.40;;;;;;4998035;28;20833;-66
2021/09/03 13:29:49;;;;;;;5.93;5.47;;;29.80;65.10;;;;;;4997601;28;20457;-66
2021/09/03 13:32:15;;;;;;;6.27;5.67;;;29.70;62.60;;;;;;4997309;28;20477;-66
2021/09/03 13:34:42;;;;;;;6.50;5.90;;;29.70;60.00;;;;;;4997797;28;20458;-65
2021/09/03 13:37:09;;;;;;;6.00;5.47;;;30.00;65.10;;;;;;4997365;28;20481;-65
2021/09/03 13:39:35;;;;;;;6.03;5.63;;;30.00;63.90;;;;;;4997449;28;20945;-65
2021/09/03 13:42:04;;;;;;;5.83;5.43;;;29.90;60.60;;;;;;4997439;28;20480;-66
2021/09/03 13:44:30;;;;;;;6.60;5.70;;;29.90;61.60;;;;;;4997424;28;20458;-66
2021/09/03 13:46:57;;;;;;;4.43;4.20;;;29.80;65.50;;;;;;4997284;28;20457;-65
2021/09/03 13:49:24;;;;;;;7.10;6.50;;;29.80;62.30;;;;;;4997070;28;20458;-66
2021/09/03 13:51:51;;;;;;;5.17;4.87;;;29.70;59.50;;;;;;4997151;28;20473;-67
2021/09/03 13:54:17;;;;;;;6.10;5.50;;;29.80;58.80;;;;;;4996934;28;20818;-65
2021/09/03 13:56:44;;;;;;;5.97;5.57;;;29.70;57.90;;;;;;4997296;28;20477;-67
2021/09/03 13:59:12;;;;;;;5.57;5.07;;;29.70;59.40;;;;;;5006739;28;20450;-66
2021/09/03 14:01:39;;;;;;;5.40;5.00;;;29.60;57.80;;;;;;5019525;28;20461;-66
2021/09/03 14:04:06;;;;;;;5.80;5.27;;;29.40;59.20;;;;;;5005445;28;20980;-67
2021/09/03 14:06:35;;;;;;;5.90;5.50;;;29.30;59.60;;;;;;4999099;28;20449;-66
2021/09/03 14:09:01;;;;;;;5.93;5.53;;;29.40;62.20;;;;;;4997424;28;20460;-66
2021/09/03 14:11:28;;;;;;;5.33;5.00;;;29.30;59.80;;;;;;4996794;28;20493;-66
2021/09/03 14:13:55;;;;;;;5.70;5.20;;;29.40;60.90;;;;;;4996981;28;20454;-66
2021/09/03 14:16:23;;;;;;;4.90;4.60;;;29.10;61.30;;;;;;4996751;28;20478;-66
2021/09/03 14:18:50;;;;;;;5.20;4.80;;;29.30;59.00;;;;;;4996556;28;20467;-66
2021/09/03 14:21:16;;;;;;;5.33;4.83;;;29.20;62.30;;;;;;4996595;28;20474;-66
2021/09/03 14:23:43;;;;;;;5.17;4.87;;;29.10;63.70;;;;;;4996822;28;20465;-66
2021/09/03 14:26:11;;;;;;;7.43;5.17;;;29.10;61.10;;;;;;4996712;28;20464;-66
2021/09/03 14:28:38;;;;;;;6.73;6.13;;;29.10;59.80;;;;;;4996814;28;20461;-66
2021/09/03 14:31:05;;;;;;;4.70;4.40;;;29.00;64.90;;;;;;4996424;28;20909;-66
2021/09/03 14:33:33;;;;;;;5.73;5.33;;;29.10;61.60;;;;;;4996678;28;20512;-66
2021/09/03 14:36:00;;;;;;;4.93;4.63;;;29.00;61.00;;;;;;4996584;28;20454;-66
2021/09/03 14:38:27;;;;;;;4.90;4.60;;;29.00;66.30;;;;;;4996549;28;20478;-67
2021/09/03 14:40:54;;;;;;;5.20;4.80;;;29.10;60.80;;;;;;4996269;28;20474;-65
2021/09/03 14:43:20;;;;;;;4.50;4.20;;;29.00;61.00;;;;;;4996576;28;20461;-66
2021/09/03 14:45:47;;;;;;;5.47;5.07;;;29.10;59.30;;;;;;4996400;28;20454;-66
2021/09/03 14:48:14;;;;;;;5.60;5.20;;;29.10;62.60;;;;;;4996181;28;20530;-66
2021/09/03 14:50:43;;;;;;;5.60;5.20;;;29.10;59.10;;;;;;4995849;28;20479;-65
2021/09/03 14:53:09;;;;;;;5.67;5.27;;;29.20;62.70;;;;;;4996864;28;20465;-66
2021/09/03 14:55:36;;;;;;;5.57;5.17;;;29.00;63.30;;;;;;4995869;28;20949;-66
2021/09/03 14:58:03;;;;;;;4.90;4.50;;;29.00;60.90;;;;;;4995968;28;20500;-66
2021/09/03 15:00:30;;;;;;;5.37;4.87;;;28.90;63.20;;;;;;4995631;28;20461;-65
2021/09/03 15:02:57;;;;;;;5.87;5.47;;;28.90;61.00;;;;;;4996035;28;20807;-65
2021/09/03 15:05:23;;;;;;;8.00;5.37;;;29.10;59.00;;;;;;4995573;28;20921;-65
2021/09/03 15:07:51;;;;;;;4.70;4.37;;;29.00;60.80;;;;;;4995865;28;20450;-66
2021/09/03 15:10:18;;;;;;;4.70;4.40;;;29.10;67.20;;;;;;4996242;28;20457;-65
2021/09/03 15:12:45;;;;;;;6.03;5.57;;;29.10;59.50;;;;;;4996208;28;20461;-65
2021/09/03 15:15:12;;;;;;;5.70;5.30;;;29.00;59.40;;;;;;4996185;28;20461;-66
2021/09/03 15:17:39;;;;;;;5.20;4.80;;;29.00;64.30;;;;;;4996250;28;20477;-66
2021/09/03 15:20:07;;;;;;;4.97;4.67;;;28.90;61.40;;;;;;4996344;28;20457;-66
2021/09/03 15:22:34;;;;;;;6.23;5.67;;;28.80;62.20;;;;;;4995630;28;20474;-65
2021/09/03 15:25:02;;;;;;;7.80;5.17;;;28.70;59.90;;;;;;4995403;28;20557;-65
2021/09/03 15:27:29;;;;;;;5.13;4.83;;;28.70;62.90;;;;;;4995530;28;20454;-66
2021/09/03 15:29:56;;;;;;;5.00;4.70;;;28.80;62.90;;;;;;4995355;28;20942;-65
2021/09/03 15:32:22;;;;;;;5.77;5.37;;;28.50;63.30;;;;;;4995883;28;20985;-66
2021/09/03 15:34:49;;;;;;;6.83;4.57;;;28.30;63.20;;;;;;4996822;28;20536;-62
2021/09/03 15:37:16;;;;;;;5.20;4.90;;;28.50;66.60;;;;;;4995108;28;20481;-63
2021/09/03 15:39:43;;;;;;;6.50;5.60;;;28.40;63.30;;;;;;4995108;28;20484;-63
2021/09/03 15:42:11;;;;;;;4.40;4.10;;;28.20;61.80;;;;;;4994665;28;20984;-63
2021/09/03 15:44:38;;;;;;;5.27;4.77;;;28.30;60.10;;;;;;4995165;28;20458;-63
2021/09/03 15:47:05;;;;;;;5.93;5.50;;;28.30;61.70;;;;;;4995231;28;20457;-63
2021/09/03 15:49:32;;;;;;;5.13;4.63;;;28.30;68.70;;;;;;4995183;28;20454;-63
2021/09/03 15:51:59;;;;;;;5.30;5.00;;;28.30;63.20;;;;;;5000346;28;20504;-64
2021/09/03 15:54:26;;;;;;;5.27;4.77;;;28.30;62.00;;;;;;5003786;28;20457;-62
2021/09/03 15:56:52;;;;;;;5.20;4.80;;;28.20;61.50;;;;;;4997024;28;20481;-63
2021/09/03 15:59:20;;;;;;;5.80;5.40;;;28.00;63.40;;;;;;4995140;28;20466;-63
2021/09/03 16:01:47;;;;;;;5.60;5.20;;;27.80;63.80;;;;;;4994596;28;20505;-64
2021/09/03 16:04:14;;;;;;;5.40;5.00;;;27.80;63.30;;;;;;4994950;28;20453;-63
2021/09/03 16:06:41;;;;;;;6.67;4.43;;;27.70;64.70;;;;;;4994876;28;20460;-64
2021/09/03 16:09:07;;;;;;;9.00;8.30;;;27.40;64.40;;;;;;4994833;28;20464;-62
2021/09/03 16:11:34;;;;;;;10.17;9.27;;;27.30;63.50;;;;;;4994811;28;20470;-63
2021/09/03 16:14:01;;;;;;;11.57;10.20;;;27.20;63.70;;;;;;4997887;28;20458;-64
2021/09/03 16:16:30;;;;;;;12.50;10.00;;;26.90;64.10;;;;;;4998525;28;20945;-63
2021/09/03 16:18:56;;;;;;;7.53;6.90;;;26.90;65.20;;;;;;4994798;28;20848;-62
2021/09/03 16:21:23;;;;;;;5.87;5.50;;;26.80;65.70;;;;;;4994669;28;20469;-63
2021/09/03 16:23:50;;;;;;;4.80;4.47;;;26.80;65.20;;;;;;4995125;28;20460;-64
2021/09/03 16:26:17;;;;;;;5.40;4.83;;;26.60;65.50;;;;;;4994716;28;20457;-64
2021/09/03 16:28:44;;;;;;;5.67;5.07;;;26.50;67.10;;;;;;4994625;28;20457;-64
2021/09/03 16:31:11;;;;;;;5.90;5.50;;;26.40;66.50;;;;;;4994798;28;20485;-63
2021/09/03 16:33:39;;;;;;;5.73;5.30;;;26.30;68.10;;;;;;4995636;28;20454;-63
2021/09/03 16:36:06;;;;;;;6.93;4.73;;;26.30;69.50;;;;;;4995352;28;20850;-64
2021/09/03 16:38:33;;;;;;;5.33;4.90;;;26.20;68.10;;;;;;4994477;28;20477;-64
2021/09/03 16:41:00;;;;;;;6.00;5.43;;;26.10;68.30;;;;;;4994625;28;20481;-63
2021/09/03 16:43:26;;;;;;;4.93;4.63;;;26.00;68.80;;;;;;4997048;28;20464;-63
2021/09/03 16:45:53;;;;;;;5.80;5.40;;;25.90;69.90;;;;;;4998033;28;20794;-62
2021/09/03 16:48:21;;;;;;;5.27;4.83;;;25.90;70.60;;;;;;4998371;28;20945;-64